sensor_id;sensor_type;location;lat;lon;timestamp;temperature;humidity
28761;DHT22;15917;50.014;8.352;2023-06-22T00:00:53;24.30;99.90
28761;DHT22;15917;50.014;8.352;2023-06-22T00:03:20;24.20;99.90
28761;DHT22;15917;50.014;8.352;2023-06-22T00:05:47;24.20;99.90
28761;DHT22;15917;50.014;8.352;2023-06-22T00:08:13;24.20;99.90
28761;DHT22;15917;50.014;8.352;2023-06-22T00:10:39;24.20;99.90
28761;DHT22;15917;50.014;8.352;2023-06-22T00:13:06;24.20;99.90
28761;DHT22;15917;50.014;8.352;2023-06-22T00:15:32;24.30;99.90
28761;DHT22;15917;50.014;8.352;2023-06-22T00:17:58;24.30;99.90
28761;DHT22;15917;50.014;8.352;2023-06-22T00:20:25;24.30;99.90
28761;DHT22;15917;50.014;8.352;2023-06-22T00:22:54;24.20;99.90
28761;DHT22;15917;50.014;8.352;2023-06-22T00:25:20;24.20;99.90
28761;DHT22;15917;50.014;8.352;2023-06-22T00:27:46;24.20;99.90
28761;DHT22;15917;50.014;8.352;2023-06-22T00:30:11;24.20;99.90
28761;DHT22;15917;50.014;8.352;2023-06-22T00:32:37;24.30;99.90
28761;DHT22;15917;50.014;8.352;2023-06-22T00:35:03;24.30;99.90
28761;DHT22;15917;50.014;8.352;2023-06-22T00:37:29;24.30;99.90
28761;DHT22;15917;50.014;8.352;2023-06-22T00:39:55;24.30;99.90
28761;DHT22;15917;50.014;8.352;2023-06-22T00:42:21;24.30;99.90
28761;DHT22;15917;50.014;8.352;2023-06-22T00:44:47;24.40;99.90
28761;DHT22;15917;50.014;8.352;2023-06-22T00:47:17;24.40;99.90
28761;DHT22;15917;50.014;8.352;2023-06-22T00:49:43;24.40;99.90
28761;DHT22;15917;50.014;8.352;2023-06-22T00:52:10;24.40;99.90
28761;DHT22;15917;50.014;8.352;2023-06-22T00:54:40;24.40;99.90
28761;DHT22;15917;50.014;8.352;2023-06-22T00:57:13;24.40;99.90
28761;DHT22;15917;50.014;8.352;2023-06-22T00:59:43;24.30;99.90
28761;DHT22;15917;50.014;8.352;2023-06-22T01:02:09;24.20;99.90
28761;DHT22;15917;50.014;8.352;2023-06-22T01:04:36;24.00;99.90
28761;DHT22;15917;50.014;8.352;2023-06-22T01:12:20;23.60;99.90
28761;DHT22;15917;50.014;8.352;2023-06-22T01:14:57;23.50;99.90
28761;DHT22;15917;50.014;8.352;2023-06-22T01:17:24;23.40;99.90
28761;DHT22;15917;50.014;8.352;2023-06-22T01:19:54;23.50;99.90
28761;DHT22;15917;50.014;8.352;2023-06-22T01:22:24;23.50;99.90
28761;DHT22;15917;50.014;8.352;2023-06-22T01:30:20;23.50;99.90
28761;DHT22;15917;50.014;8.352;2023-06-22T01:32:48;23.40;99.90
28761;DHT22;15917;50.014;8.352;2023-06-22T01:35:14;23.40;99.90
28761;DHT22;15917;50.014;8.352;2023-06-22T01:37:40;23.30;99.90
28761;DHT22;15917;50.014;8.352;2023-06-22T01:40:07;23.20;99.90
28761;DHT22;15917;50.014;8.352;2023-06-22T01:42:34;23.20;99.90
28761;DHT22;15917;50.014;8.352;2023-06-22T01:45:00;23.10;99.90
28761;DHT22;15917;50.014;8.352;2023-06-22T01:47:27;23.10;99.90
28761;DHT22;15917;50.014;8.352;2023-06-22T01:49:53;23.00;99.90
28761;DHT22;15917;50.014;8.352;2023-06-22T01:52:20;23.00;99.90
28761;DHT22;15917;50.014;8.352;2023-06-22T01:54:47;22.90;99.90
28761;DHT22;15917;50.014;8.352;2023-06-22T01:57:13;22.90;99.90
28761;DHT22;15917;50.014;8.352;2023-06-22T01:59:58;22.80;99.90
28761;DHT22;15917;50.014;8.352;2023-06-22T02:02:29;22.80;99.90
28761;DHT22;15917;50.014;8.352;2023-06-22T02:05:08;22.80;99.90
28761;DHT22;15917;50.014;8.352;2023-06-22T02:07:45;22.80;99.90
28761;DHT22;15917;50.014;8.352;2023-06-22T02:10:14;22.80;99.90
28761;DHT22;15917;50.014;8.352;2023-06-22T02:12:42;22.80;99.90
28761;DHT22;15917;50.014;8.352;2023-06-22T02:15:10;22.80;99.90
28761;DHT22;15917;50.014;8.352;2023-06-22T02:17:38;22.70;99.90
28761;DHT22;15917;50.014;8.352;2023-06-22T02:20:04;22.80;99.90
28761;DHT22;15917;50.014;8.352;2023-06-22T02:22:35;22.80;99.90
28761;DHT22;15917;50.014;8.352;2023-06-22T02:25:01;22.80;99.90
28761;DHT22;15917;50.014;8.352;2023-06-22T02:27:28;22.90;99.90
28761;DHT22;15917;50.014;8.352;2023-06-22T02:29:53;22.90;99.90
28761;DHT22;15917;50.014;8.352;2023-06-22T02:32:19;22.90;99.90
28761;DHT22;15917;50.014;8.352;2023-06-22T02:34:46;22.90;99.90
28761;DHT22;15917;50.014;8.352;2023-06-22T02:37:15;22.80;99.90
28761;DHT22;15917;50.014;8.352;2023-06-22T02:39:41;22.80;99.90
28761;DHT22;15917;50.014;8.352;2023-06-22T02:42:07;22.80;99.90
28761;DHT22;15917;50.014;8.352;2023-06-22T02:44:33;22.80;99.90
28761;DHT22;15917;50.014;8.352;2023-06-22T02:46:59;22.70;99.90
28761;DHT22;15917;50.014;8.352;2023-06-22T02:49:24;22.70;99.90
28761;DHT22;15917;50.014;8.352;2023-06-22T02:51:50;22.70;99.90
28761;DHT22;15917;50.014;8.352;2023-06-22T02:54:19;22.80;99.90
28761;DHT22;15917;50.014;8.352;2023-06-22T02:56:46;22.80;99.90
28761;DHT22;15917;50.014;8.352;2023-06-22T02:59:13;22.80;99.90
28761;DHT22;15917;50.014;8.352;2023-06-22T03:01:39;22.80;99.90
28761;DHT22;15917;50.014;8.352;2023-06-22T03:04:27;22.70;99.90
28761;DHT22;15917;50.014;8.352;2023-06-22T03:06:53;22.70;99.90
28761;DHT22;15917;50.014;8.352;2023-06-22T03:09:19;22.70;99.90
28761;DHT22;15917;50.014;8.352;2023-06-22T03:11:44;22.70;99.90
28761;DHT22;15917;50.014;8.352;2023-06-22T03:14:10;22.70;99.90
28761;DHT22;15917;50.014;8.352;2023-06-22T03:16:36;22.60;99.90
28761;DHT22;15917;50.014;8.352;2023-06-22T03:19:02;22.60;99.90
28761;DHT22;15917;50.014;8.352;2023-06-22T03:21:28;22.60;99.90
28761;DHT22;15917;50.014;8.352;2023-06-22T03:23:55;22.60;99.90
28761;DHT22;15917;50.014;8.352;2023-06-22T03:26:21;22.70;99.90
28761;DHT22;15917;50.014;8.352;2023-06-22T03:28:47;22.70;99.90
28761;DHT22;15917;50.014;8.352;2023-06-22T03:31:12;22.70;99.90
28761;DHT22;15917;50.014;8.352;2023-06-22T03:33:39;22.70;99.90
28761;DHT22;15917;50.014;8.352;2023-06-22T03:36:05;22.70;99.90
28761;DHT22;15917;50.014;8.352;2023-06-22T03:38:32;22.70;99.90
28761;DHT22;15917;50.014;8.352;2023-06-22T03:40:58;22.70;99.90
28761;DHT22;15917;50.014;8.352;2023-06-22T03:43:25;22.70;99.90
28761;DHT22;15917;50.014;8.352;2023-06-22T03:45:50;22.70;99.90
28761;DHT22;15917;50.014;8.352;2023-06-22T03:48:16;22.60;99.90
28761;DHT22;15917;50.014;8.352;2023-06-22T03:50:42;22.60;99.90
28761;DHT22;15917;50.014;8.352;2023-06-22T03:53:09;22.60;99.90
28761;DHT22;15917;50.014;8.352;2023-06-22T03:55:36;22.70;99.90
28761;DHT22;15917;50.014;8.352;2023-06-22T03:58:01;22.60;99.90
28761;DHT22;15917;50.014;8.352;2023-06-22T04:00:31;22.70;99.90
28761;DHT22;15917;50.014;8.352;2023-06-22T04:02:57;22.70;99.90
28761;DHT22;15917;50.014;8.352;2023-06-22T04:05:23;22.70;99.90
28761;DHT22;15917;50.014;8.352;2023-06-22T04:07:49;22.60;99.90
28761;DHT22;15917;50.014;8.352;2023-06-22T04:10:15;22.70;99.90
28761;DHT22;15917;50.014;8.352;2023-06-22T04:12:41;22.70;99.90
28761;DHT22;15917;50.014;8.352;2023-06-22T04:15:06;22.70;99.90
28761;DHT22;15917;50.014;8.352;2023-06-22T04:17:32;22.70;99.90
28761;DHT22;15917;50.014;8.352;2023-06-22T04:19:58;22.60;99.90
28761;DHT22;15917;50.014;8.352;2023-06-22T04:22:23;22.60;99.90
28761;DHT22;15917;50.014;8.352;2023-06-22T04:24:49;22.60;99.90
28761;DHT22;15917;50.014;8.352;2023-06-22T04:27:18;22.50;99.90
28761;DHT22;15917;50.014;8.352;2023-06-22T04:29:45;22.50;99.90
28761;DHT22;15917;50.014;8.352;2023-06-22T04:32:15;22.50;99.90
28761;DHT22;15917;50.014;8.352;2023-06-22T04:34:41;22.50;99.90
28761;DHT22;15917;50.014;8.352;2023-06-22T04:37:06;22.50;99.90
28761;DHT22;15917;50.014;8.352;2023-06-22T04:39:32;22.50;99.90
28761;DHT22;15917;50.014;8.352;2023-06-22T04:41:57;22.50;99.90
28761;DHT22;15917;50.014;8.352;2023-06-22T04:44:26;22.50;99.90
28761;DHT22;15917;50.014;8.352;2023-06-22T04:46:59;22.40;99.90
28761;DHT22;15917;50.014;8.352;2023-06-22T04:49:35;22.30;99.90
28761;DHT22;15917;50.014;8.352;2023-06-22T04:52:07;22.30;99.90
28761;DHT22;15917;50.014;8.352;2023-06-22T04:54:34;22.30;99.90
28761;DHT22;15917;50.014;8.352;2023-06-22T04:57:05;22.30;99.90
28761;DHT22;15917;50.014;8.352;2023-06-22T04:59:35;22.30;99.90
28761;DHT22;15917;50.014;8.352;2023-06-22T05:02:01;22.40;99.90
28761;DHT22;15917;50.014;8.352;2023-06-22T05:04:28;22.40;99.90
28761;DHT22;15917;50.014;8.352;2023-06-22T05:06:57;22.40;99.90
28761;DHT22;15917;50.014;8.352;2023-06-22T05:09:23;22.40;99.90
28761;DHT22;15917;50.014;8.352;2023-06-22T05:11:50;22.40;99.90
28761;DHT22;15917;50.014;8.352;2023-06-22T05:14:16;22.40;99.90
28761;DHT22;15917;50.014;8.352;2023-06-22T05:16:42;22.40;99.90
28761;DHT22;15917;50.014;8.352;2023-06-22T05:19:08;22.40;99.90
28761;DHT22;15917;50.014;8.352;2023-06-22T05:21:34;22.40;99.90
28761;DHT22;15917;50.014;8.352;2023-06-22T05:24:00;22.40;99.90
28761;DHT22;15917;50.014;8.352;2023-06-22T05:26:31;22.50;99.90
28761;DHT22;15917;50.014;8.352;2023-06-22T05:28:58;22.50;99.90
28761;DHT22;15917;50.014;8.352;2023-06-22T05:31:24;22.50;99.90
28761;DHT22;15917;50.014;8.352;2023-06-22T05:33:51;22.60;99.90
28761;DHT22;15917;50.014;8.352;2023-06-22T05:36:17;22.60;99.90
28761;DHT22;15917;50.014;8.352;2023-06-22T05:38:45;22.70;99.90
28761;DHT22;15917;50.014;8.352;2023-06-22T05:41:11;22.80;99.90
28761;DHT22;15917;50.014;8.352;2023-06-22T05:43:37;22.90;99.90
28761;DHT22;15917;50.014;8.352;2023-06-22T05:46:04;23.00;99.90
28761;DHT22;15917;50.014;8.352;2023-06-22T05:48:30;23.10;99.90
28761;DHT22;15917;50.014;8.352;2023-06-22T05:50:55;23.10;99.90
28761;DHT22;15917;50.014;8.352;2023-06-22T05:53:21;23.20;99.90
28761;DHT22;15917;50.014;8.352;2023-06-22T05:55:47;23.30;99.90
28761;DHT22;15917;50.014;8.352;2023-06-22T05:58:13;23.30;99.90
28761;DHT22;15917;50.014;8.352;2023-06-22T06:00:40;23.40;99.90
28761;DHT22;15917;50.014;8.352;2023-06-22T06:03:07;23.40;99.90
28761;DHT22;15917;50.014;8.352;2023-06-22T06:05:33;23.50;99.90
28761;DHT22;15917;50.014;8.352;2023-06-22T06:08:04;23.50;99.90
28761;DHT22;15917;50.014;8.352;2023-06-22T06:10:32;23.50;99.90
28761;DHT22;15917;50.014;8.352;2023-06-22T06:12:58;23.60;99.90
28761;DHT22;15917;50.014;8.352;2023-06-22T06:15:23;23.60;99.90
28761;DHT22;15917;50.014;8.352;2023-06-22T06:17:51;23.70;99.90
28761;DHT22;15917;50.014;8.352;2023-06-22T06:20:24;23.80;99.90
28761;DHT22;15917;50.014;8.352;2023-06-22T06:22:50;23.90;99.90
28761;DHT22;15917;50.014;8.352;2023-06-22T06:25:16;24.10;99.90
28761;DHT22;15917;50.014;8.352;2023-06-22T06:27:43;24.30;99.90
28761;DHT22;15917;50.014;8.352;2023-06-22T06:30:10;24.40;99.90
28761;DHT22;15917;50.014;8.352;2023-06-22T06:32:36;24.60;99.90
28761;DHT22;15917;50.014;8.352;2023-06-22T06:35:01;24.70;99.90
28761;DHT22;15917;50.014;8.352;2023-06-22T06:37:27;24.80;99.90
28761;DHT22;15917;50.014;8.352;2023-06-22T06:39:53;24.80;99.90
28761;DHT22;15917;50.014;8.352;2023-06-22T06:42:19;24.80;99.90
28761;DHT22;15917;50.014;8.352;2023-06-22T06:44:45;24.80;99.90
28761;DHT22;15917;50.014;8.352;2023-06-22T06:47:10;24.80;99.90
28761;DHT22;15917;50.014;8.352;2023-06-22T06:49:36;24.70;99.90
28761;DHT22;15917;50.014;8.352;2023-06-22T06:52:02;24.80;99.90
28761;DHT22;15917;50.014;8.352;2023-06-22T06:54:27;24.80;99.90
28761;DHT22;15917;50.014;8.352;2023-06-22T06:56:53;24.90;99.90
28761;DHT22;15917;50.014;8.352;2023-06-22T06:59:18;24.90;99.90
28761;DHT22;15917;50.014;8.352;2023-06-22T07:01:44;24.90;99.90
28761;DHT22;15917;50.014;8.352;2023-06-22T07:04:10;24.90;99.90
28761;DHT22;15917;50.014;8.352;2023-06-22T07:06:35;24.90;99.90
28761;DHT22;15917;50.014;8.352;2023-06-22T07:09:01;24.90;99.90
28761;DHT22;15917;50.014;8.352;2023-06-22T07:11:28;25.00;99.90
28761;DHT22;15917;50.014;8.352;2023-06-22T07:13:54;25.00;99.90
28761;DHT22;15917;50.014;8.352;2023-06-22T07:16:19;25.00;99.90
28761;DHT22;15917;50.014;8.352;2023-06-22T07:18:45;25.20;99.90
28761;DHT22;15917;50.014;8.352;2023-06-22T07:21:10;25.40;99.90
28761;DHT22;15917;50.014;8.352;2023-06-22T07:23:36;25.50;99.90
28761;DHT22;15917;50.014;8.352;2023-06-22T07:26:02;25.60;99.90
28761;DHT22;15917;50.014;8.352;2023-06-22T07:28:27;25.60;99.90
28761;DHT22;15917;50.014;8.352;2023-06-22T07:30:53;25.70;99.90
28761;DHT22;15917;50.014;8.352;2023-06-22T07:33:19;25.70;99.90
28761;DHT22;15917;50.014;8.352;2023-06-22T07:35:45;25.70;99.90
28761;DHT22;15917;50.014;8.352;2023-06-22T07:38:12;25.80;99.90
28761;DHT22;15917;50.014;8.352;2023-06-22T07:40:37;25.80;99.90
28761;DHT22;15917;50.014;8.352;2023-06-22T07:43:03;26.00;99.90
28761;DHT22;15917;50.014;8.352;2023-06-22T07:45:29;26.00;99.90
28761;DHT22;15917;50.014;8.352;2023-06-22T07:47:55;26.10;99.90
28761;DHT22;15917;50.014;8.352;2023-06-22T07:50:20;26.20;99.90
28761;DHT22;15917;50.014;8.352;2023-06-22T07:52:46;26.30;99.90
28761;DHT22;15917;50.014;8.352;2023-06-22T07:55:13;26.10;99.90
28761;DHT22;15917;50.014;8.352;2023-06-22T07:57:39;26.10;99.90
28761;DHT22;15917;50.014;8.352;2023-06-22T08:00:05;26.20;99.90
28761;DHT22;15917;50.014;8.352;2023-06-22T08:02:43;26.20;99.90
28761;DHT22;15917;50.014;8.352;2023-06-22T08:05:10;26.20;99.90
28761;DHT22;15917;50.014;8.352;2023-06-22T08:07:36;26.40;99.90
28761;DHT22;15917;50.014;8.352;2023-06-22T08:10:05;26.40;99.90
28761;DHT22;15917;50.014;8.352;2023-06-22T08:12:31;26.60;99.90
28761;DHT22;15917;50.014;8.352;2023-06-22T08:14:57;26.80;99.90
28761;DHT22;15917;50.014;8.352;2023-06-22T08:17:23;26.90;99.90
28761;DHT22;15917;50.014;8.352;2023-06-22T08:19:49;26.90;99.90
28761;DHT22;15917;50.014;8.352;2023-06-22T08:22:23;26.80;99.90
28761;DHT22;15917;50.014;8.352;2023-06-22T08:24:52;26.80;99.90
28761;DHT22;15917;50.014;8.352;2023-06-22T08:27:17;26.80;99.90
28761;DHT22;15917;50.014;8.352;2023-06-22T08:29:46;27.00;99.90
28761;DHT22;15917;50.014;8.352;2023-06-22T08:32:12;27.10;99.90
28761;DHT22;15917;50.014;8.352;2023-06-22T08:34:38;27.10;99.90
28761;DHT22;15917;50.014;8.352;2023-06-22T08:37:08;27.20;99.90
28761;DHT22;15917;50.014;8.352;2023-06-22T08:39:33;27.30;99.90
28761;DHT22;15917;50.014;8.352;2023-06-22T08:41:59;27.30;99.90
28761;DHT22;15917;50.014;8.352;2023-06-22T08:44:25;27.30;99.90
28761;DHT22;15917;50.014;8.352;2023-06-22T08:46:50;27.30;99.90
28761;DHT22;15917;50.014;8.352;2023-06-22T08:49:16;27.50;99.90
28761;DHT22;15917;50.014;8.352;2023-06-22T08:51:42;27.60;99.90
28761;DHT22;15917;50.014;8.352;2023-06-22T08:54:07;27.80;99.90
28761;DHT22;15917;50.014;8.352;2023-06-22T08:56:33;27.90;99.90
28761;DHT22;15917;50.014;8.352;2023-06-22T08:58:58;28.00;99.90
28761;DHT22;15917;50.014;8.352;2023-06-22T09:01:24;28.00;99.90
28761;DHT22;15917;50.014;8.352;2023-06-22T09:03:50;28.00;99.90
28761;DHT22;15917;50.014;8.352;2023-06-22T09:06:21;27.90;99.90
28761;DHT22;15917;50.014;8.352;2023-06-22T09:08:50;27.90;99.90
28761;DHT22;15917;50.014;8.352;2023-06-22T09:11:16;28.00;99.90
28761;DHT22;15917;50.014;8.352;2023-06-22T09:13:41;28.20;99.90
28761;DHT22;15917;50.014;8.352;2023-06-22T09:16:07;28.40;99.90
28761;DHT22;15917;50.014;8.352;2023-06-22T09:18:36;28.60;99.90
28761;DHT22;15917;50.014;8.352;2023-06-22T09:21:02;28.80;99.90
28761;DHT22;15917;50.014;8.352;2023-06-22T09:23:33;29.10;99.90
28761;DHT22;15917;50.014;8.352;2023-06-22T09:25:59;29.10;99.90
28761;DHT22;15917;50.014;8.352;2023-06-22T09:28:25;29.20;99.90
28761;DHT22;15917;50.014;8.352;2023-06-22T09:30:51;29.10;99.90
28761;DHT22;15917;50.014;8.352;2023-06-22T09:33:16;28.90;99.90
28761;DHT22;15917;50.014;8.352;2023-06-22T09:35:45;28.90;99.90
28761;DHT22;15917;50.014;8.352;2023-06-22T09:38:10;28.80;99.90
28761;DHT22;15917;50.014;8.352;2023-06-22T09:40:36;28.80;99.90
28761;DHT22;15917;50.014;8.352;2023-06-22T09:43:05;28.90;99.90
28761;DHT22;15917;50.014;8.352;2023-06-22T09:45:30;29.00;99.90
28761;DHT22;15917;50.014;8.352;2023-06-22T09:47:56;29.10;99.90
28761;DHT22;15917;50.014;8.352;2023-06-22T09:50:22;29.10;99.90
28761;DHT22;15917;50.014;8.352;2023-06-22T09:52:47;29.00;99.90
28761;DHT22;15917;50.014;8.352;2023-06-22T09:55:16;28.90;99.90
28761;DHT22;15917;50.014;8.352;2023-06-22T09:57:41;29.00;99.90
28761;DHT22;15917;50.014;8.352;2023-06-22T10:00:07;29.20;99.90
28761;DHT22;15917;50.014;8.352;2023-06-22T10:02:34;29.40;99.90
28761;DHT22;15917;50.014;8.352;2023-06-22T10:05:01;29.60;99.90
28761;DHT22;15917;50.014;8.352;2023-06-22T10:07:26;29.60;99.90
28761;DHT22;15917;50.014;8.352;2023-06-22T10:09:52;29.70;99.90
28761;DHT22;15917;50.014;8.352;2023-06-22T10:12:17;29.80;99.90
28761;DHT22;15917;50.014;8.352;2023-06-22T10:14:43;29.70;99.90
28761;DHT22;15917;50.014;8.352;2023-06-22T10:17:08;29.90;99.90
28761;DHT22;15917;50.014;8.352;2023-06-22T10:19:34;30.00;99.90
28761;DHT22;15917;50.014;8.352;2023-06-22T10:22:03;30.10;99.90
28761;DHT22;15917;50.014;8.352;2023-06-22T10:24:29;30.30;99.90
28761;DHT22;15917;50.014;8.352;2023-06-22T10:26:54;30.40;99.90
28761;DHT22;15917;50.014;8.352;2023-06-22T10:29:20;30.50;99.90
28761;DHT22;15917;50.014;8.352;2023-06-22T10:31:46;30.80;99.90
28761;DHT22;15917;50.014;8.352;2023-06-22T10:34:11;30.90;99.90
28761;DHT22;15917;50.014;8.352;2023-06-22T10:36:37;31.10;99.90
28761;DHT22;15917;50.014;8.352;2023-06-22T10:39:03;31.40;99.90
28761;DHT22;15917;50.014;8.352;2023-06-22T10:41:29;31.50;99.90
28761;DHT22;15917;50.014;8.352;2023-06-22T10:43:55;31.70;99.90
28761;DHT22;15917;50.014;8.352;2023-06-22T10:46:21;31.70;99.90
28761;DHT22;15917;50.014;8.352;2023-06-22T10:48:46;31.70;99.90
28761;DHT22;15917;50.014;8.352;2023-06-22T10:51:12;31.60;99.90
28761;DHT22;15917;50.014;8.352;2023-06-22T10:53:38;31.60;99.90
28761;DHT22;15917;50.014;8.352;2023-06-22T10:56:03;31.60;99.90
28761;DHT22;15917;50.014;8.352;2023-06-22T10:58:29;31.70;99.90
28761;DHT22;15917;50.014;8.352;2023-06-22T11:00:54;31.70;99.90
28761;DHT22;15917;50.014;8.352;2023-06-22T11:03:20;31.80;99.90
28761;DHT22;15917;50.014;8.352;2023-06-22T11:05:46;31.60;99.90
28761;DHT22;15917;50.014;8.352;2023-06-22T11:08:13;31.50;99.90
28761;DHT22;15917;50.014;8.352;2023-06-22T11:10:38;31.60;99.90
28761;DHT22;15917;50.014;8.352;2023-06-22T11:13:04;31.60;99.90
28761;DHT22;15917;50.014;8.352;2023-06-22T11:15:31;31.40;99.90
28761;DHT22;15917;50.014;8.352;2023-06-22T11:17:56;31.30;99.90
28761;DHT22;15917;50.014;8.352;2023-06-22T11:20:22;31.40;99.90
28761;DHT22;15917;50.014;8.352;2023-06-22T11:22:50;31.70;99.90
28761;DHT22;15917;50.014;8.352;2023-06-22T11:25:16;32.00;99.90
28761;DHT22;15917;50.014;8.352;2023-06-22T11:27:42;32.20;99.90
28761;DHT22;15917;50.014;8.352;2023-06-22T11:30:11;32.20;99.90
28761;DHT22;15917;50.014;8.352;2023-06-22T11:32:39;32.10;99.90
28761;DHT22;15917;50.014;8.352;2023-06-22T11:35:04;32.10;99.90
28761;DHT22;15917;50.014;8.352;2023-06-22T11:37:30;32.30;99.90
28761;DHT22;15917;50.014;8.352;2023-06-22T11:39:56;32.50;99.90
28761;DHT22;15917;50.014;8.352;2023-06-22T11:42:23;32.50;99.90
28761;DHT22;15917;50.014;8.352;2023-06-22T11:44:49;32.40;99.90
28761;DHT22;15917;50.014;8.352;2023-06-22T11:47:15;32.30;99.90
28761;DHT22;15917;50.014;8.352;2023-06-22T11:49:41;32.00;99.90
28761;DHT22;15917;50.014;8.352;2023-06-22T11:52:06;32.20;99.90
28761;DHT22;15917;50.014;8.352;2023-06-22T11:54:32;32.40;99.90
28761;DHT22;15917;50.014;8.352;2023-06-22T11:56:57;32.70;99.90
28761;DHT22;15917;50.014;8.352;2023-06-22T11:59:23;32.90;99.90
28761;DHT22;15917;50.014;8.352;2023-06-22T12:01:49;33.20;99.90
28761;DHT22;15917;50.014;8.352;2023-06-22T12:04:16;33.20;99.90
28761;DHT22;15917;50.014;8.352;2023-06-22T12:06:42;33.20;99.90
28761;DHT22;15917;50.014;8.352;2023-06-22T12:09:09;33.10;99.90
28761;DHT22;15917;50.014;8.352;2023-06-22T12:11:35;33.20;99.90
28761;DHT22;15917;50.014;8.352;2023-06-22T12:14:00;33.20;99.90
28761;DHT22;15917;50.014;8.352;2023-06-22T12:16:30;33.30;99.90
28761;DHT22;15917;50.014;8.352;2023-06-22T12:18:56;33.10;99.90
28761;DHT22;15917;50.014;8.352;2023-06-22T12:21:22;33.20;99.90
28761;DHT22;15917;50.014;8.352;2023-06-22T12:23:48;33.50;99.90
28761;DHT22;15917;50.014;8.352;2023-06-22T12:26:13;33.90;99.90
28761;DHT22;15917;50.014;8.352;2023-06-22T12:28:39;34.20;99.90
28761;DHT22;15917;50.014;8.352;2023-06-22T12:31:04;34.30;99.90
28761;DHT22;15917;50.014;8.352;2023-06-22T12:33:30;34.30;99.90
28761;DHT22;15917;50.014;8.352;2023-06-22T12:35:56;34.20;99.90
28761;DHT22;15917;50.014;8.352;2023-06-22T12:38:22;33.80;99.90
28761;DHT22;15917;50.014;8.352;2023-06-22T12:40:47;33.60;99.90
28761;DHT22;15917;50.014;8.352;2023-06-22T12:43:15;33.40;99.90
28761;DHT22;15917;50.014;8.352;2023-06-22T12:45:40;33.00;99.90
28761;DHT22;15917;50.014;8.352;2023-06-22T12:48:06;32.90;99.90
28761;DHT22;15917;50.014;8.352;2023-06-22T12:50:32;32.90;99.90
28761;DHT22;15917;50.014;8.352;2023-06-22T12:52:57;32.80;99.90
28761;DHT22;15917;50.014;8.352;2023-06-22T12:55:23;32.80;99.90
28761;DHT22;15917;50.014;8.352;2023-06-22T12:57:49;33.00;99.90
28761;DHT22;15917;50.014;8.352;2023-06-22T13:00:15;32.90;99.90
28761;DHT22;15917;50.014;8.352;2023-06-22T13:02:40;32.70;99.90
28761;DHT22;15917;50.014;8.352;2023-06-22T13:05:08;32.40;99.90
28761;DHT22;15917;50.014;8.352;2023-06-22T13:07:34;32.30;99.90
28761;DHT22;15917;50.014;8.352;2023-06-22T13:09:59;32.40;99.90
28761;DHT22;15917;50.014;8.352;2023-06-22T13:12:25;32.60;99.90
28761;DHT22;15917;50.014;8.352;2023-06-22T13:14:51;32.90;99.90
28761;DHT22;15917;50.014;8.352;2023-06-22T13:17:16;32.90;99.90
28761;DHT22;15917;50.014;8.352;2023-06-22T13:19:42;32.90;99.90
28761;DHT22;15917;50.014;8.352;2023-06-22T13:22:26;32.80;99.90
28761;DHT22;15917;50.014;8.352;2023-06-22T13:24:52;33.00;99.90
28761;DHT22;15917;50.014;8.352;2023-06-22T13:27:18;33.10;99.90
28761;DHT22;15917;50.014;8.352;2023-06-22T13:29:44;33.20;99.90
28761;DHT22;15917;50.014;8.352;2023-06-22T13:32:10;33.10;99.90
28761;DHT22;15917;50.014;8.352;2023-06-22T13:34:35;32.90;99.90
28761;DHT22;15917;50.014;8.352;2023-06-22T13:37:01;32.80;99.90
28761;DHT22;15917;50.014;8.352;2023-06-22T13:39:26;32.60;99.90
28761;DHT22;15917;50.014;8.352;2023-06-22T13:41:52;32.60;99.90
28761;DHT22;15917;50.014;8.352;2023-06-22T13:44:18;32.80;99.90
28761;DHT22;15917;50.014;8.352;2023-06-22T13:46:43;33.00;99.90
28761;DHT22;15917;50.014;8.352;2023-06-22T13:49:09;33.20;99.90
28761;DHT22;15917;50.014;8.352;2023-06-22T13:51:35;33.40;99.90
28761;DHT22;15917;50.014;8.352;2023-06-22T13:54:01;33.30;99.90
28761;DHT22;15917;50.014;8.352;2023-06-22T13:56:27;33.60;99.90
28761;DHT22;15917;50.014;8.352;2023-06-22T13:58:52;33.90;99.90
28761;DHT22;15917;50.014;8.352;2023-06-22T14:01:18;33.80;99.90
28761;DHT22;15917;50.014;8.352;2023-06-22T14:03:43;33.90;99.90
28761;DHT22;15917;50.014;8.352;2023-06-22T14:06:12;33.70;99.30
28761;DHT22;15917;50.014;8.352;2023-06-22T14:08:38;33.50;99.50
28761;DHT22;15917;50.014;8.352;2023-06-22T14:11:03;33.40;99.90
28761;DHT22;15917;50.014;8.352;2023-06-22T14:13:29;33.10;99.80
28761;DHT22;15917;50.014;8.352;2023-06-22T14:15:55;32.90;98.80
28761;DHT22;15917;50.014;8.352;2023-06-22T14:18:20;32.80;98.50
28761;DHT22;15917;50.014;8.352;2023-06-22T14:20:48;32.70;98.30
28761;DHT22;15917;50.014;8.352;2023-06-22T14:23:14;32.50;99.10
28761;DHT22;15917;50.014;8.352;2023-06-22T14:25:40;32.30;99.50
28761;DHT22;15917;50.014;8.352;2023-06-22T14:28:06;32.30;99.60
28761;DHT22;15917;50.014;8.352;2023-06-22T14:30:32;32.20;99.80
28761;DHT22;15917;50.014;8.352;2023-06-22T14:32:57;32.00;99.90
28761;DHT22;15917;50.014;8.352;2023-06-22T14:35:23;31.90;99.90
28761;DHT22;15917;50.014;8.352;2023-06-22T14:37:50;31.80;99.90
28761;DHT22;15917;50.014;8.352;2023-06-22T14:40:15;31.80;99.90
28761;DHT22;15917;50.014;8.352;2023-06-22T14:42:41;31.70;99.90
28761;DHT22;15917;50.014;8.352;2023-06-22T14:45:07;31.70;99.90
28761;DHT22;15917;50.014;8.352;2023-06-22T14:47:32;31.70;99.90
28761;DHT22;15917;50.014;8.352;2023-06-22T14:49:58;31.50;99.90
28761;DHT22;15917;50.014;8.352;2023-06-22T14:52:25;31.50;99.90
28761;DHT22;15917;50.014;8.352;2023-06-22T14:54:51;31.40;99.90
28761;DHT22;15917;50.014;8.352;2023-06-22T14:57:18;31.30;99.90
28761;DHT22;15917;50.014;8.352;2023-06-22T14:59:46;31.20;99.90
28761;DHT22;15917;50.014;8.352;2023-06-22T15:02:12;31.20;99.90
28761;DHT22;15917;50.014;8.352;2023-06-22T15:04:38;30.90;99.90
28761;DHT22;15917;50.014;8.352;2023-06-22T15:07:04;30.40;99.90
28761;DHT22;15917;50.014;8.352;2023-06-22T15:09:29;29.60;99.90
28761;DHT22;15917;50.014;8.352;2023-06-22T15:11:55;29.00;99.90
28761;DHT22;15917;50.014;8.352;2023-06-22T15:14:21;28.50;99.90
28761;DHT22;15917;50.014;8.352;2023-06-22T15:16:46;28.00;99.90
28761;DHT22;15917;50.014;8.352;2023-06-22T15:19:12;27.70;99.90
28761;DHT22;15917;50.014;8.352;2023-06-22T15:21:38;27.50;99.90
28761;DHT22;15917;50.014;8.352;2023-06-22T15:24:04;27.50;99.90
28761;DHT22;15917;50.014;8.352;2023-06-22T15:26:29;27.60;99.90
28761;DHT22;15917;50.014;8.352;2023-06-22T15:28:55;27.60;99.90
28761;DHT22;15917;50.014;8.352;2023-06-22T15:31:21;27.60;99.90
28761;DHT22;15917;50.014;8.352;2023-06-22T15:33:47;27.70;99.90
28761;DHT22;15917;50.014;8.352;2023-06-22T15:36:12;27.80;99.90